sensor_id;sensor_type;location;lat;lon;timestamp;P1;durP1;ratioP1;P2;durP2;ratioP2
15697;SDS011;7949;48.726;9.102;2023-05-20T18:20:18;9.35;;;6.10;;
15697;SDS011;7949;48.726;9.102;2023-05-20T18:22:45;13.73;;;7.05;;
15697;SDS011;7949;48.726;9.102;2023-05-20T18:25:14;11.60;;;7.38;;
15697;SDS011;7949;48.726;9.102;2023-05-20T18:27:41;8.52;;;6.18;;
15697;SDS011;7949;48.726;9.102;2023-05-20T18:30:09;9.95;;;6.68;;
15697;SDS011;7949;48.726;9.102;2023-05-20T18:32:35;11.45;;;6.70;;
15697;SDS011;7949;48.726;9.102;2023-05-20T18:35:02;10.52;;;6.72;;
15697;SDS011;7949;48.726;9.102;2023-05-20T18:37:31;10.18;;;6.45;;
15697;SDS011;7949;48.726;9.102;2023-05-20T18:39:58;10.48;;;6.68;;
15697;SDS011;7949;48.726;9.102;2023-05-20T18:42:25;11.43;;;6.47;;
15697;SDS011;7949;48.726;9.102;2023-05-20T18:44:52;10.43;;;6.43;;
15697;SDS011;7949;48.726;9.102;2023-05-20T18:47:19;9.45;;;6.57;;
15697;SDS011;7949;48.726;9.102;2023-05-20T18:49:46;11.10;;;6.72;;
15697;SDS011;7949;48.726;9.102;2023-05-20T18:52:13;10.93;;;6.78;;
15697;SDS011;7949;48.726;9.102;2023-05-20T18:54:41;9.93;;;6.53;;
15697;SDS011;7949;48.726;9.102;2023-05-20T18:57:08;9.00;;;6.35;;
15697;SDS011;7949;48.726;9.102;2023-05-20T18:59:35;10.85;;;6.75;;
15697;SDS011;7949;48.726;9.102;2023-05-20T19:02:02;11.25;;;6.90;;
15697;SDS011;7949;48.726;9.102;2023-05-20T19:04:29;10.60;;;7.53;;
15697;SDS011;7949;48.726;9.102;2023-05-20T19:06:56;9.55;;;7.22;;
15697;SDS011;7949;48.726;9.102;2023-05-20T19:09:23;16.50;;;7.00;;
15697;SDS011;7949;48.726;9.102;2023-05-20T19:11:51;11.50;;;6.85;;
15697;SDS011;7949;48.726;9.102;2023-05-20T19:14:22;10.55;;;7.05;;
15697;SDS011;7949;48.726;9.102;2023-05-20T19:16:49;10.43;;;7.40;;
15697;SDS011;7949;48.726;9.102;2023-05-20T19:19:16;12.70;;;6.97;;
15697;SDS011;7949;48.726;9.102;2023-05-20T19:21:43;11.93;;;7.03;;
15697;SDS011;7949;48.726;9.102;2023-05-20T19:24:10;10.32;;;7.82;;
15697;SDS011;7949;48.726;9.102;2023-05-20T19:26:37;13.95;;;8.10;;
15697;SDS011;7949;48.726;9.102;2023-05-20T19:29:05;12.90;;;8.05;;
15697;SDS011;7949;48.726;9.102;2023-05-20T19:31:32;14.10;;;8.05;;
15697;SDS011;7949;48.726;9.102;2023-05-20T19:33:59;13.45;;;8.20;;
15697;SDS011;7949;48.726;9.102;2023-05-20T19:36:25;16.60;;;7.43;;
15697;SDS011;7949;48.726;9.102;2023-05-20T19:38:52;11.23;;;8.32;;
15697;SDS011;7949;48.726;9.102;2023-05-20T19:41:20;12.32;;;7.90;;
15697;SDS011;7949;48.726;9.102;2023-05-20T19:43:46;14.55;;;8.15;;
15697;SDS011;7949;48.726;9.102;2023-05-20T19:46:15;13.15;;;8.32;;
15697;SDS011;7949;48.726;9.102;2023-05-20T19:48:42;16.85;;;8.43;;
15697;SDS011;7949;48.726;9.102;2023-05-20T19:51:09;14.05;;;7.75;;
15697;SDS011;7949;48.726;9.102;2023-05-20T19:53:35;14.40;;;8.30;;
15697;SDS011;7949;48.726;9.102;2023-05-20T19:56:03;15.52;;;8.70;;
15697;SDS011;7949;48.726;9.102;2023-05-20T19:58:31;11.93;;;8.02;;
15697;SDS011;7949;48.726;9.102;2023-05-20T20:00:58;12.52;;;7.95;;
15697;SDS011;7949;48.726;9.102;2023-05-20T20:03:26;12.95;;;7.95;;
15697;SDS011;7949;48.726;9.102;2023-05-20T20:05:53;15.98;;;9.07;;
15697;SDS011;7949;48.726;9.102;2023-05-20T20:08:20;12.48;;;8.10;;
15697;SDS011;7949;48.726;9.102;2023-05-20T20:10:47;15.50;;;8.77;;
15697;SDS011;7949;48.726;9.102;2023-05-20T20:13:14;12.52;;;8.43;;
15697;SDS011;7949;48.726;9.102;2023-05-20T20:15:41;14.82;;;8.73;;
15697;SDS011;7949;48.726;9.102;2023-05-20T20:18:08;14.98;;;8.65;;
15697;SDS011;7949;48.726;9.102;2023-05-20T20:20:36;13.85;;;8.70;;
15697;SDS011;7949;48.726;9.102;2023-05-20T20:23:04;14.90;;;9.15;;
15697;SDS011;7949;48.726;9.102;2023-05-20T20:25:31;14.95;;;8.93;;
15697;SDS011;7949;48.726;9.102;2023-05-20T20:28:02;13.27;;;9.15;;
15697;SDS011;7949;48.726;9.102;2023-05-20T20:30:29;12.63;;;8.80;;
15697;SDS011;7949;48.726;9.102;2023-05-20T20:32:56;11.90;;;8.77;;
15697;SDS011;7949;48.726;9.102;2023-05-20T20:35:23;14.02;;;9.35;;
15697;SDS011;7949;48.726;9.102;2023-05-20T20:37:51;17.52;;;9.45;;
15697;SDS011;7949;48.726;9.102;2023-05-20T20:40:19;11.90;;;8.43;;
15697;SDS011;7949;48.726;9.102;2023-05-20T20:42:46;14.90;;;9.43;;
15697;SDS011;7949;48.726;9.102;2023-05-20T20:45:13;14.50;;;9.23;;
15697;SDS011;7949;48.726;9.102;2023-05-20T20:47:40;13.55;;;9.02;;
15697;SDS011;7949;48.726;9.102;2023-05-20T20:50:08;13.93;;;8.98;;
15697;SDS011;7949;48.726;9.102;2023-05-20T20:52:35;14.52;;;9.15;;
15697;SDS011;7949;48.726;9.102;2023-05-20T20:55:05;13.13;;;9.00;;
15697;SDS011;7949;48.726;9.102;2023-05-20T20:57:33;16.02;;;8.98;;
15697;SDS011;7949;48.726;9.102;2023-05-20T21:00:00;13.65;;;9.48;;
15697;SDS011;7949;48.726;9.102;2023-05-20T21:02:36;18.52;;;8.85;;
15697;SDS011;7949;48.726;9.102;2023-05-20T21:05:03;12.38;;;8.68;;
15697;SDS011;7949;48.726;9.102;2023-05-20T21:07:30;15.90;;;9.60;;
15697;SDS011;7949;48.726;9.102;2023-05-20T21:09:57;17.27;;;9.13;;
15697;SDS011;7949;48.726;9.102;2023-05-20T21:12:25;18.73;;;9.60;;
15697;SDS011;7949;48.726;9.102;2023-05-20T21:14:52;14.88;;;9.13;;
15697;SDS011;7949;48.726;9.102;2023-05-20T21:17:19;14.38;;;9.48;;
15697;SDS011;7949;48.726;9.102;2023-05-20T21:19:46;14.77;;;9.15;;
15697;SDS011;7949;48.726;9.102;2023-05-20T21:22:13;16.42;;;8.45;;
15697;SDS011;7949;48.726;9.102;2023-05-20T21:24:39;15.48;;;9.75;;
15697;SDS011;7949;48.726;9.102;2023-05-20T21:27:07;15.45;;;9.43;;
15697;SDS011;7949;48.726;9.102;2023-05-20T21:29:35;14.88;;;9.18;;
15697;SDS011;7949;48.726;9.102;2023-05-20T21:32:02;16.23;;;9.07;;
15697;SDS011;7949;48.726;9.102;2023-05-20T21:34:30;14.07;;;8.82;;
15697;SDS011;7949;48.726;9.102;2023-05-20T21:36:56;15.95;;;9.82;;
15697;SDS011;7949;48.726;9.102;2023-05-20T21:39:23;18.95;;;9.30;;
15697;SDS011;7949;48.726;9.102;2023-05-20T21:41:50;17.23;;;9.75;;
15697;SDS011;7949;48.726;9.102;2023-05-20T21:44:17;16.27;;;9.65;;
15697;SDS011;7949;48.726;9.102;2023-05-20T21:46:45;16.42;;;10.00;;
15697;SDS011;7949;48.726;9.102;2023-05-20T21:49:12;16.20;;;10.02;;
15697;SDS011;7949;48.726;9.102;2023-05-20T21:51:38;14.75;;;9.30;;
15697;SDS011;7949;48.726;9.102;2023-05-20T21:54:05;17.00;;;9.30;;
15697;SDS011;7949;48.726;9.102;2023-05-20T21:56:32;15.38;;;9.75;;
15697;SDS011;7949;48.726;9.102;2023-05-20T21:58:59;18.80;;;10.45;;
15697;SDS011;7949;48.726;9.102;2023-05-20T22:01:26;16.27;;;9.98;;
15697;SDS011;7949;48.726;9.102;2023-05-20T22:03:54;17.40;;;9.48;;
15697;SDS011;7949;48.726;9.102;2023-05-20T22:06:21;14.55;;;9.35;;
15697;SDS011;7949;48.726;9.102;2023-05-20T22:08:49;18.17;;;10.43;;
15697;SDS011;7949;48.726;9.102;2023-05-20T22:11:17;16.27;;;9.88;;
15697;SDS011;7949;48.726;9.102;2023-05-20T22:13:45;15.57;;;9.77;;
15697;SDS011;7949;48.726;9.102;2023-05-20T22:16:12;16.30;;;10.20;;
15697;SDS011;7949;48.726;9.102;2023-05-20T22:18:40;16.30;;;9.77;;
15697;SDS011;7949;48.726;9.102;2023-05-20T22:21:09;15.32;;;9.57;;
